sensor_id;sensor_type;location;lat;lon;timestamp;pressure;altitude;pressure_sealevel;temperature;humidity
76448;BME280;65284;51.040;13.722;2023-07-20T00:01:33;99438.47;;;17.21;86.93
76448;BME280;65284;51.040;13.722;2023-07-20T00:04:00;99440.97;;;17.22;86.82
76448;BME280;65284;51.040;13.722;2023-07-20T00:06:26;99438.16;;;17.11;86.92
76448;BME280;65284;51.040;13.722;2023-07-20T00:08:54;99441.84;;;17.16;87.52
76448;BME280;65284;51.040;13.722;2023-07-20T00:11:27;99440.09;;;17.28;86.81
76448;BME280;65284;51.040;13.722;2023-07-20T00:13:54;99446.50;;;17.27;87.13
76448;BME280;65284;51.040;13.722;2023-07-20T00:16:20;99441.78;;;17.23;86.89
76448;BME280;65284;51.040;13.722;2023-07-20T00:18:47;99439.28;;;17.21;87.26
76448;BME280;65284;51.040;13.722;2023-07-20T00:21:14;99450.16;;;17.08;87.33
76448;BME280;65284;51.040;13.722;2023-07-20T00:23:41;99419.25;;;16.99;88.32
76448;BME280;65284;51.040;13.722;2023-07-20T00:26:11;99424.50;;;17.12;87.52
76448;BME280;65284;51.040;13.722;2023-07-20T00:28:37;99427.25;;;17.05;87.79
76448;BME280;65284;51.040;13.722;2023-07-20T00:31:04;99433.44;;;17.06;87.34
76448;BME280;65284;51.040;13.722;2023-07-20T00:33:31;99442.28;;;17.06;87.69
76448;BME280;65284;51.040;13.722;2023-07-20T00:35:57;99433.59;;;17.11;87.97
76448;BME280;65284;51.040;13.722;2023-07-20T00:38:26;99433.28;;;17.01;88.34
76448;BME280;65284;51.040;13.722;2023-07-20T00:40:53;99429.28;;;17.10;87.94
76448;BME280;65284;51.040;13.722;2023-07-20T00:43:19;99442.72;;;17.03;87.90
76448;BME280;65284;51.040;13.722;2023-07-20T00:45:48;99446.25;;;17.04;87.96
76448;BME280;65284;51.040;13.722;2023-07-20T00:48:15;99436.66;;;17.15;87.79
76448;BME280;65284;51.040;13.722;2023-07-20T00:50:42;99445.38;;;17.10;87.14
76448;BME280;65284;51.040;13.722;2023-07-20T00:53:09;99440.72;;;16.99;87.93
76448;BME280;65284;51.040;13.722;2023-07-20T00:55:35;99440.66;;;17.05;87.13
76448;BME280;65284;51.040;13.722;2023-07-20T00:58:02;99434.81;;;17.15;86.57
76448;BME280;65284;51.040;13.722;2023-07-20T01:00:29;99438.34;;;17.09;86.50
76448;BME280;65284;51.040;13.722;2023-07-20T01:02:56;99448.16;;;16.97;86.33
76448;BME280;65284;51.040;13.722;2023-07-20T01:05:31;99446.06;;;16.99;86.68
76448;BME280;65284;51.040;13.722;2023-07-20T01:08:06;99448.56;;;16.94;86.18
76448;BME280;65284;51.040;13.722;2023-07-20T01:10:46;99443.66;;;16.91;86.54
76448;BME280;65284;51.040;13.722;2023-07-20T01:13:17;99428.47;;;17.10;85.92
76448;BME280;65284;51.040;13.722;2023-07-20T01:15:49;99433.16;;;17.14;85.00
76448;BME280;65284;51.040;13.722;2023-07-20T01:18:17;99444.34;;;17.11;84.17
76448;BME280;65284;51.040;13.722;2023-07-20T01:20:44;99440.53;;;17.25;83.60
76448;BME280;65284;51.040;13.722;2023-07-20T01:23:27;99450.47;;;17.18;84.53
76448;BME280;65284;51.040;13.722;2023-07-20T01:31:19;99457.44;;;17.01;85.70
76448;BME280;65284;51.040;13.722;2023-07-20T01:33:47;99446.31;;;16.91;86.17
76448;BME280;65284;51.040;13.722;2023-07-20T01:36:16;99448.25;;;16.83;86.59
76448;BME280;65284;51.040;13.722;2023-07-20T01:38:44;99456.13;;;16.72;87.04
76448;BME280;65284;51.040;13.722;2023-07-20T01:41:11;99450.94;;;16.70;87.59
76448;BME280;65284;51.040;13.722;2023-07-20T01:43:38;99454.03;;;16.80;87.18
76448;BME280;65284;51.040;13.722;2023-07-20T01:46:04;99456.09;;;16.78;87.01
76448;BME280;65284;51.040;13.722;2023-07-20T01:48:31;99453.28;;;16.60;87.70
76448;BME280;65284;51.040;13.722;2023-07-20T01:50:58;99447.06;;;16.66;88.04
76448;BME280;65284;51.040;13.722;2023-07-20T01:53:24;99451.19;;;16.69;87.54
76448;BME280;65284;51.040;13.722;2023-07-20T01:55:54;99451.19;;;16.62;87.63
76448;BME280;65284;51.040;13.722;2023-07-20T01:58:20;99453.19;;;16.73;87.74
76448;BME280;65284;51.040;13.722;2023-07-20T02:00:47;99451.13;;;16.75;87.73
76448;BME280;65284;51.040;13.722;2023-07-20T02:03:14;99449.09;;;16.77;87.96
76448;BME280;65284;51.040;13.722;2023-07-20T02:05:43;99455.72;;;16.68;88.08
76448;BME280;65284;51.040;13.722;2023-07-20T02:08:10;99450.94;;;16.83;87.76
76448;BME280;65284;51.040;13.722;2023-07-20T02:10:36;99445.41;;;16.65;87.82
76448;BME280;65284;51.040;13.722;2023-07-20T02:13:03;99452.91;;;16.50;89.16
76448;BME280;65284;51.040;13.722;2023-07-20T02:15:29;99447.50;;;16.63;88.83
76448;BME280;65284;51.040;13.722;2023-07-20T02:17:56;99447.94;;;16.60;88.59
76448;BME280;65284;51.040;13.722;2023-07-20T02:20:22;99448.56;;;16.55;88.91
76448;BME280;65284;51.040;13.722;2023-07-20T02:22:49;99448.78;;;16.54;88.85
76448;BME280;65284;51.040;13.722;2023-07-20T02:25:15;99449.88;;;16.40;89.40
76448;BME280;65284;51.040;13.722;2023-07-20T02:27:42;99456.06;;;16.33;89.84
76448;BME280;65284;51.040;13.722;2023-07-20T02:30:09;99442.28;;;16.30;90.05
76448;BME280;65284;51.040;13.722;2023-07-20T02:32:36;99453.81;;;16.30;90.02
76448;BME280;65284;51.040;13.722;2023-07-20T02:35:03;99455.53;;;16.18;90.49
76448;BME280;65284;51.040;13.722;2023-07-20T02:37:29;99454.22;;;16.34;90.22
76448;BME280;65284;51.040;13.722;2023-07-20T02:39:57;99449.63;;;16.48;89.60
76448;BME280;65284;51.040;13.722;2023-07-20T02:42:23;99451.53;;;16.34;89.67
76448;BME280;65284;51.040;13.722;2023-07-20T02:44:52;99456.25;;;16.38;89.68
76448;BME280;65284;51.040;13.722;2023-07-20T02:47:18;99455.03;;;16.34;89.58
76448;BME280;65284;51.040;13.722;2023-07-20T02:49:45;99456.25;;;16.38;89.56
76448;BME280;65284;51.040;13.722;2023-07-20T02:52:11;99460.59;;;16.40;89.29
76448;BME280;65284;51.040;13.722;2023-07-20T02:54:38;99467.16;;;16.44;89.04
76448;BME280;65284;51.040;13.722;2023-07-20T02:57:05;99475.22;;;16.37;89.21
76448;BME280;65284;51.040;13.722;2023-07-20T02:59:31;99473.78;;;16.34;89.54
76448;BME280;65284;51.040;13.722;2023-07-20T03:01:58;99468.63;;;16.40;88.69
76448;BME280;65284;51.040;13.722;2023-07-20T03:04:28;99475.00;;;16.38;88.94
76448;BME280;65284;51.040;13.722;2023-07-20T03:06:54;99479.16;;;16.34;88.90
76448;BME280;65284;51.040;13.722;2023-07-20T03:09:21;99483.31;;;16.30;89.21
76448;BME280;65284;51.040;13.722;2023-07-20T03:11:49;99484.31;;;16.29;89.02
76448;BME280;65284;51.040;13.722;2023-07-20T03:14:16;99478.78;;;16.24;89.30
76448;BME280;65284;51.040;13.722;2023-07-20T03:16:43;99477.34;;;16.22;89.16
76448;BME280;65284;51.040;13.722;2023-07-20T03:19:09;99486.81;;;16.18;89.85
76448;BME280;65284;51.040;13.722;2023-07-20T03:21:36;99488.25;;;16.33;89.02
76448;BME280;65284;51.040;13.722;2023-07-20T03:24:07;99488.47;;;16.25;89.15
76448;BME280;65284;51.040;13.722;2023-07-20T03:26:35;99486.38;;;16.34;88.86
76448;BME280;65284;51.040;13.722;2023-07-20T03:29:02;99488.25;;;16.33;89.00
76448;BME280;65284;51.040;13.722;2023-07-20T03:31:29;99496.06;;;16.28;88.58
76448;BME280;65284;51.040;13.722;2023-07-20T03:33:55;99484.53;;;16.28;88.68
76448;BME280;65284;51.040;13.722;2023-07-20T03:36:22;99494.22;;;16.29;88.71
76448;BME280;65284;51.040;13.722;2023-07-20T03:38:49;99491.34;;;16.30;88.73
76448;BME280;65284;51.040;13.722;2023-07-20T03:41:16;99494.59;;;16.32;88.77
76448;BME280;65284;51.040;13.722;2023-07-20T03:43:42;99491.50;;;16.35;88.05
76448;BME280;65284;51.040;13.722;2023-07-20T03:46:09;99494.81;;;16.37;88.44
76448;BME280;65284;51.040;13.722;2023-07-20T03:48:35;99488.00;;;16.42;88.12
76448;BME280;65284;51.040;13.722;2023-07-20T03:51:02;99483.47;;;16.35;88.52
76448;BME280;65284;51.040;13.722;2023-07-20T03:53:28;99491.75;;;16.34;88.57
76448;BME280;65284;51.040;13.722;2023-07-20T03:55:55;99492.56;;;16.34;88.52
76448;BME280;65284;51.040;13.722;2023-07-20T03:58:22;99496.06;;;16.35;88.13
76448;BME280;65284;51.040;13.722;2023-07-20T04:00:51;99496.66;;;16.44;88.08
76448;BME280;65284;51.040;13.722;2023-07-20T04:03:18;99499.56;;;16.35;88.29
76448;BME280;65284;51.040;13.722;2023-07-20T04:05:45;99501.00;;;16.31;88.54
76448;BME280;65284;51.040;13.722;2023-07-20T04:08:12;99495.81;;;16.43;87.75
76448;BME280;65284;51.040;13.722;2023-07-20T04:10:39;99496.28;;;16.33;88.50
76448;BME280;65284;51.040;13.722;2023-07-20T04:13:05;99492.97;;;16.31;88.49
76448;BME280;65284;51.040;13.722;2023-07-20T04:15:33;99500.38;;;16.43;87.97
76448;BME280;65284;51.040;13.722;2023-07-20T04:17:59;99499.53;;;16.49;87.62
76448;BME280;65284;51.040;13.722;2023-07-20T04:20:27;99506.50;;;16.50;87.52
76448;BME280;65284;51.040;13.722;2023-07-20T04:22:53;99502.41;;;16.54;87.25
76448;BME280;65284;51.040;13.722;2023-07-20T04:25:20;99492.88;;;16.58;87.65
76448;BME280;65284;51.040;13.722;2023-07-20T04:27:47;99497.03;;;16.54;87.69
76448;BME280;65284;51.040;13.722;2023-07-20T04:30:13;99506.28;;;16.58;87.62
76448;BME280;65284;51.040;13.722;2023-07-20T04:32:41;99509.34;;;16.68;87.46
76448;BME280;65284;51.040;13.722;2023-07-20T04:35:10;99509.78;;;16.58;87.94
76448;BME280;65284;51.040;13.722;2023-07-20T04:37:37;99497.66;;;16.49;88.24
76448;BME280;65284;51.040;13.722;2023-07-20T04:40:04;99506.47;;;16.63;87.78
76448;BME280;65284;51.040;13.722;2023-07-20T04:42:30;99494.94;;;16.56;88.25
76448;BME280;65284;51.040;13.722;2023-07-20T04:44:57;99502.41;;;16.54;88.18
76448;BME280;65284;51.040;13.722;2023-07-20T04:47:23;99502.38;;;16.60;88.13
76448;BME280;65284;51.040;13.722;2023-07-20T04:49:50;99504.00;;;16.68;87.94
76448;BME280;65284;51.040;13.722;2023-07-20T04:52:16;99508.97;;;16.58;88.27
76448;BME280;65284;51.040;13.722;2023-07-20T04:54:43;99513.06;;;16.67;87.66
76448;BME280;65284;51.040;13.722;2023-07-20T04:57:11;99509.78;;;16.58;88.13
76448;BME280;65284;51.040;13.722;2023-07-20T04:59:38;99514.69;;;16.75;87.57
76448;BME280;65284;51.040;13.722;2023-07-20T05:02:04;99505.19;;;16.79;86.83
76448;BME280;65284;51.040;13.722;2023-07-20T05:04:31;99515.50;;;16.82;86.87
76448;BME280;65284;51.040;13.722;2023-07-20T05:07:04;99530.34;;;16.85;86.57
76448;BME280;65284;51.040;13.722;2023-07-20T05:09:31;99522.44;;;16.96;86.11
76448;BME280;65284;51.040;13.722;2023-07-20T05:11:57;99522.25;;;16.98;85.98
76448;BME280;65284;51.040;13.722;2023-07-20T05:14:24;99517.53;;;16.87;86.27
76448;BME280;65284;51.040;13.722;2023-07-20T05:16:51;99517.91;;;16.97;86.41
76448;BME280;65284;51.040;13.722;2023-07-20T05:19:17;99517.25;;;17.01;85.74
76448;BME280;65284;51.040;13.722;2023-07-20T05:21:44;99513.34;;;17.04;85.69
76448;BME280;65284;51.040;13.722;2023-07-20T05:24:10;99520.53;;;17.10;85.34
76448;BME280;65284;51.040;13.722;2023-07-20T05:26:37;99514.28;;;17.16;85.46
76448;BME280;65284;51.040;13.722;2023-07-20T05:29:04;99518.69;;;17.04;85.55
76448;BME280;65284;51.040;13.722;2023-07-20T05:31:30;99515.31;;;17.15;85.03
76448;BME280;65284;51.040;13.722;2023-07-20T05:33:57;99517.47;;;17.00;85.17
76448;BME280;65284;51.040;13.722;2023-07-20T05:36:24;99517.47;;;17.00;84.93
76448;BME280;65284;51.040;13.722;2023-07-20T05:38:51;99518.66;;;17.11;84.25
76448;BME280;65284;51.040;13.722;2023-07-20T05:41:17;99522.28;;;17.23;84.07
76448;BME280;65284;51.040;13.722;2023-07-20T05:43:43;99521.22;;;17.31;83.80
76448;BME280;65284;51.040;13.722;2023-07-20T05:46:10;99523.69;;;17.32;83.55
76448;BME280;65284;51.040;13.722;2023-07-20T05:48:36;99521.59;;;17.34;83.30
76448;BME280;65284;51.040;13.722;2023-07-20T05:51:03;99531.09;;;17.37;83.09
76448;BME280;65284;51.040;13.722;2023-07-20T05:53:29;99525.22;;;17.46;82.88
76448;BME280;65284;51.040;13.722;2023-07-20T05:55:56;99534.97;;;17.41;83.09
76448;BME280;65284;51.040;13.722;2023-07-20T05:58:23;99541.81;;;17.37;83.45
76448;BME280;65284;51.040;13.722;2023-07-20T06:00:50;99530.47;;;17.35;83.38
76448;BME280;65284;51.040;13.722;2023-07-20T06:03:17;99532.38;;;17.27;83.50
76448;BME280;65284;51.040;13.722;2023-07-20T06:05:44;99538.34;;;17.29;83.72
76448;BME280;65284;51.040;13.722;2023-07-20T06:08:10;99533.59;;;17.32;83.77
76448;BME280;65284;51.040;13.722;2023-07-20T06:10:36;99533.47;;;17.20;83.79
76448;BME280;65284;51.040;13.722;2023-07-20T06:13:03;99539.47;;;17.15;84.33
76448;BME280;65284;51.040;13.722;2023-07-20T06:15:33;99545.97;;;17.33;84.52
76448;BME280;65284;51.040;13.722;2023-07-20T06:18:01;99557.03;;;17.11;86.69
76448;BME280;65284;51.040;13.722;2023-07-20T06:20:30;99561.91;;;16.89;88.87
76448;BME280;65284;51.040;13.722;2023-07-20T06:22:56;99575.31;;;16.82;89.06
76448;BME280;65284;51.040;13.722;2023-07-20T06:25:23;99576.25;;;16.36;93.05
76448;BME280;65284;51.040;13.722;2023-07-20T06:27:50;99574.63;;;16.09;97.78
76448;BME280;65284;51.040;13.722;2023-07-20T06:30:18;99563.13;;;15.95;100.00
76448;BME280;65284;51.040;13.722;2023-07-20T06:32:45;99556.50;;;15.91;100.00
76448;BME280;65284;51.040;13.722;2023-07-20T06:35:11;99551.16;;;15.84;100.00
76448;BME280;65284;51.040;13.722;2023-07-20T06:37:38;99559.41;;;15.89;100.00
76448;BME280;65284;51.040;13.722;2023-07-20T06:40:05;99560.63;;;15.93;100.00
76448;BME280;65284;51.040;13.722;2023-07-20T06:42:35;99556.50;;;15.84;100.00
76448;BME280;65284;51.040;13.722;2023-07-20T06:45:04;99573.59;;;15.70;100.00
76448;BME280;65284;51.040;13.722;2023-07-20T06:47:31;99582.47;;;15.71;100.00
76448;BME280;65284;51.040;13.722;2023-07-20T06:49:57;99583.03;;;15.53;100.00
76448;BME280;65284;51.040;13.722;2023-07-20T06:52:24;99585.69;;;15.46;100.00
76448;BME280;65284;51.040;13.722;2023-07-20T06:54:50;99584.47;;;15.42;100.00
76448;BME280;65284;51.040;13.722;2023-07-20T06:57:17;99582.78;;;15.34;100.00
76448;BME280;65284;51.040;13.722;2023-07-20T06:59:45;99586.50;;;15.46;100.00
76448;BME280;65284;51.040;13.722;2023-07-20T07:02:11;99587.38;;;15.54;100.00
76448;BME280;65284;51.040;13.722;2023-07-20T07:04:41;99585.50;;;15.61;100.00
76448;BME280;65284;51.040;13.722;2023-07-20T07:07:09;99580.63;;;15.71;100.00
76448;BME280;65284;51.040;13.722;2023-07-20T07:09:35;99594.00;;;15.71;100.00
76448;BME280;65284;51.040;13.722;2023-07-20T07:12:03;99590.28;;;15.72;100.00
76448;BME280;65284;51.040;13.722;2023-07-20T07:14:30;99591.13;;;15.73;100.00
76448;BME280;65284;51.040;13.722;2023-07-20T07:16:58;99585.72;;;15.66;100.00
76448;BME280;65284;51.040;13.722;2023-07-20T07:19:25;99590.28;;;15.72;100.00
76448;BME280;65284;51.040;13.722;2023-07-20T07:21:51;99598.06;;;15.67;100.00
76448;BME280;65284;51.040;13.722;2023-07-20T07:24:18;99585.34;;;15.76;100.00
76448;BME280;65284;51.040;13.722;2023-07-20T07:26:45;99592.38;;;15.83;100.00
76448;BME280;65284;51.040;13.722;2023-07-20T07:29:12;99590.53;;;16.04;100.00
76448;BME280;65284;51.040;13.722;2023-07-20T07:31:38;99588.66;;;16.11;100.00
76448;BME280;65284;51.040;13.722;2023-07-20T07:34:05;99587.41;;;16.20;99.92
76448;BME280;65284;51.040;13.722;2023-07-20T07:36:32;99591.94;;;16.26;97.83
76448;BME280;65284;51.040;13.722;2023-07-20T07:38:58;99587.81;;;16.30;97.23
76448;BME280;65284;51.040;13.722;2023-07-20T07:41:28;99589.66;;;16.23;96.91
76448;BME280;65284;51.040;13.722;2023-07-20T07:43:55;99598.94;;;16.27;98.54
76448;BME280;65284;51.040;13.722;2023-07-20T07:46:21;99591.91;;;16.40;97.04
76448;BME280;65284;51.040;13.722;2023-07-20T07:48:48;99584.88;;;16.38;96.89
76448;BME280;65284;51.040;13.722;2023-07-20T07:51:14;99593.13;;;16.44;96.31
76448;BME280;65284;51.040;13.722;2023-07-20T07:53:41;99591.03;;;16.59;95.03
76448;BME280;65284;51.040;13.722;2023-07-20T07:56:09;99584.81;;;16.65;95.89
76448;BME280;65284;51.040;13.722;2023-07-20T07:58:36;99590.81;;;16.67;96.52
76448;BME280;65284;51.040;13.722;2023-07-20T08:01:04;99588.94;;;16.81;96.03
76448;BME280;65284;51.040;13.722;2023-07-20T08:03:30;99586.06;;;16.76;90.53
76448;BME280;65284;51.040;13.722;2023-07-20T08:05:57;99586.06;;;16.76;91.16
76448;BME280;65284;51.040;13.722;2023-07-20T08:08:25;99585.63;;;16.86;90.77
76448;BME280;65284;51.040;13.722;2023-07-20T08:10:54;99579.66;;;16.83;92.02
76448;BME280;65284;51.040;13.722;2023-07-20T08:13:21;99593.06;;;16.83;91.46
76448;BME280;65284;51.040;13.722;2023-07-20T08:15:50;99582.94;;;16.86;90.44
76448;BME280;65284;51.040;13.722;2023-07-20T08:18:17;99594.44;;;16.99;89.20
76448;BME280;65284;51.040;13.722;2023-07-20T08:20:44;99593.00;;;16.97;90.99
76448;BME280;65284;51.040;13.722;2023-07-20T08:23:12;99586.75;;;17.16;88.85
76448;BME280;65284;51.040;13.722;2023-07-20T08:25:39;99580.94;;;17.19;87.85
76448;BME280;65284;51.040;13.722;2023-07-20T08:28:10;99594.56;;;17.24;87.21
76448;BME280;65284;51.040;13.722;2023-07-20T08:30:42;99593.69;;;17.31;87.16
76448;BME280;65284;51.040;13.722;2023-07-20T08:33:10;99596.66;;;17.09;88.24
76448;BME280;65284;51.040;13.722;2023-07-20T08:35:37;99595.66;;;17.10;88.60
76448;BME280;65284;51.040;13.722;2023-07-20T08:38:04;99585.13;;;17.09;87.03
76448;BME280;65284;51.040;13.722;2023-07-20T08:40:32;99600.59;;;17.13;87.34
76448;BME280;65284;51.040;13.722;2023-07-20T08:42:58;99588.47;;;17.04;87.11
76448;BME280;65284;51.040;13.722;2023-07-20T08:45:30;99591.69;;;17.19;86.73
76448;BME280;65284;51.040;13.722;2023-07-20T08:48:00;99585.88;;;17.22;84.22
76448;BME280;65284;51.040;13.722;2023-07-20T08:50:29;99594.94;;;17.21;82.69
76448;BME280;65284;51.040;13.722;2023-07-20T08:52:57;99593.31;;;17.20;83.98
76448;BME280;65284;51.040;13.722;2023-07-20T08:55:28;99614.34;;;17.23;83.33
76448;BME280;65284;51.040;13.722;2023-07-20T08:57:56;99598.63;;;17.34;80.78
76448;BME280;65284;51.040;13.722;2023-07-20T09:00:24;99600.53;;;17.58;80.33
76448;BME280;65284;51.040;13.722;2023-07-20T09:02:52;99595.00;;;17.53;80.34
76448;BME280;65284;51.040;13.722;2023-07-20T09:05:20;99599.50;;;17.59;81.97
76448;BME280;65284;51.040;13.722;2023-07-20T09:07:47;99590.75;;;17.70;80.16
76448;BME280;65284;51.040;13.722;2023-07-20T09:10:13;99598.56;;;17.79;79.81
76448;BME280;65284;51.040;13.722;2023-07-20T09:12:42;99597.91;;;17.83;78.26
76448;BME280;65284;51.040;13.722;2023-07-20T09:15:10;99601.16;;;17.92;79.05
76448;BME280;65284;51.040;13.722;2023-07-20T09:17:37;99602.00;;;17.92;78.41
76448;BME280;65284;51.040;13.722;2023-07-20T09:20:08;99600.72;;;17.95;78.04
76448;BME280;65284;51.040;13.722;2023-07-20T09:22:38;99591.72;;;18.08;77.14
76448;BME280;65284;51.040;13.722;2023-07-20T09:25:16;99583.59;;;18.14;77.03
76448;BME280;65284;51.040;13.722;2023-07-20T09:27:47;99586.31;;;18.33;75.80
76448;BME280;65284;51.040;13.722;2023-07-20T09:30:15;99581.09;;;18.38;75.42
76448;BME280;65284;51.040;13.722;2023-07-20T09:32:48;99591.56;;;18.46;76.02
76448;BME280;65284;51.040;13.722;2023-07-20T09:35:19;99597.84;;;18.58;73.45
76448;BME280;65284;51.040;13.722;2023-07-20T09:37:49;99578.66;;;18.55;74.98
76448;BME280;65284;51.040;13.722;2023-07-20T09:40:38;99590.53;;;18.65;74.92
76448;BME280;65284;51.040;13.722;2023-07-20T09:43:09;99589.63;;;18.53;73.67
76448;BME280;65284;51.040;13.722;2023-07-20T09:45:42;99603.84;;;18.60;73.59
76448;BME280;65284;51.040;13.722;2023-07-20T09:48:12;99591.59;;;18.64;75.01
76448;BME280;65284;51.040;13.722;2023-07-20T09:50:51;99590.53;;;18.65;74.07
76448;BME280;65284;51.040;13.722;2023-07-20T09:53:18;99593.59;;;18.51;74.20
76448;BME280;65284;51.040;13.722;2023-07-20T09:55:46;99600.66;;;18.45;73.93
76448;BME280;65284;51.040;13.722;2023-07-20T09:58:14;99594.91;;;18.41;73.89
76448;BME280;65284;51.040;13.722;2023-07-20T10:00:41;99604.97;;;18.28;76.01
76448;BME280;65284;51.040;13.722;2023-07-20T10:03:21;99606.63;;;18.29;77.08
76448;BME280;65284;51.040;13.722;2023-07-20T10:05:54;99614.16;;;18.20;79.03
76448;BME280;65284;51.040;13.722;2023-07-20T10:08:24;99622.13;;;18.08;81.35
76448;BME280;65284;51.040;13.722;2023-07-20T10:10:53;99621.66;;;18.11;81.30
76448;BME280;65284;51.040;13.722;2023-07-20T10:13:26;99638.06;;;17.78;83.68
76448;BME280;65284;51.040;13.722;2023-07-20T10:15:54;99638.47;;;17.37;83.25
76448;BME280;65284;51.040;13.722;2023-07-20T10:18:51;99615.94;;;17.38;83.55
76448;BME280;65284;51.040;13.722;2023-07-20T10:21:19;99610.31;;;17.46;83.18
76448;BME280;65284;51.040;13.722;2023-07-20T10:23:49;99608.94;;;17.37;84.77
76448;BME280;65284;51.040;13.722;2023-07-20T10:26:16;99625.19;;;17.42;85.50
76448;BME280;65284;51.040;13.722;2023-07-20T10:28:43;99607.03;;;17.44;86.38
76448;BME280;65284;51.040;13.722;2023-07-20T10:31:10;99611.19;;;17.40;87.13
76448;BME280;65284;51.040;13.722;2023-07-20T10:33:38;99607.69;;;17.39;87.38
76448;BME280;65284;51.040;13.722;2023-07-20T10:36:05;99610.16;;;17.41;87.76
76448;BME280;65284;51.040;13.722;2023-07-20T10:41:18;99622.34;;;17.37;85.63
76448;BME280;65284;51.040;13.722;2023-07-20T10:43:46;99610.56;;;17.38;84.82
76448;BME280;65284;51.040;13.722;2023-07-20T10:46:13;99611.28;;;17.58;84.47
76448;BME280;65284;51.040;13.722;2023-07-20T10:49:03;99610.03;;;17.61;82.74
76448;BME280;65284;51.040;13.722;2023-07-20T10:54:53;99606.41;;;17.42;82.27
76448;BME280;65284;51.040;13.722;2023-07-20T10:56:56;99596.94;;;17.39;80.14
76448;BME280;65284;51.040;13.722;2023-07-20T11:01:50;99605.19;;;17.38;82.12
76448;BME280;65284;51.040;13.722;2023-07-20T11:04:19;99627.78;;;17.23;83.90
76448;BME280;65284;51.040;13.722;2023-07-20T11:06:46;99617.47;;;17.20;86.78
76448;BME280;65284;51.040;13.722;2023-07-20T11:09:22;99624.16;;;17.04;92.28
76448;BME280;65284;51.040;13.722;2023-07-20T11:12:09;99608.31;;;16.90;92.56
76448;BME280;65284;51.040;13.722;2023-07-20T11:14:43;99599.22;;;16.91;96.75
76448;BME280;65284;51.040;13.722;2023-07-20T11:17:14;99587.22;;;17.00;97.31
76448;BME280;65284;51.040;13.722;2023-07-20T11:19:41;99602.97;;;16.90;95.45
76448;BME280;65284;51.040;13.722;2023-07-20T11:22:11;99596.13;;;16.94;94.52
76448;BME280;65284;51.040;13.722;2023-07-20T11:24:39;99593.97;;;17.09;93.95
76448;BME280;65284;51.040;13.722;2023-07-20T11:27:06;99595.47;;;17.05;96.30
76448;BME280;65284;51.040;13.722;2023-07-20T11:29:32;99601.66;;;17.05;95.29
76448;BME280;65284;51.040;13.722;2023-07-20T11:32:01;99602.34;;;16.88;93.75
76448;BME280;65284;51.040;13.722;2023-07-20T11:34:32;99600.81;;;17.05;94.26
76448;BME280;65284;51.040;13.722;2023-07-20T11:36:59;99604.13;;;17.07;92.28
76448;BME280;65284;51.040;13.722;2023-07-20T11:39:29;99599.19;;;17.04;92.12
76448;BME280;65284;51.040;13.722;2023-07-20T11:41:56;99604.72;;;17.09;90.90
76448;BME280;65284;51.040;13.722;2023-07-20T11:44:25;99613.16;;;17.19;91.11
76448;BME280;65284;51.040;13.722;2023-07-20T11:49:38;99595.09;;;17.40;87.83
76448;BME280;65284;51.040;13.722;2023-07-20T11:52:11;99596.47;;;17.49;86.90
76448;BME280;65284;51.040;13.722;2023-07-20T11:54:39;99591.09;;;17.49;87.26
76448;BME280;65284;51.040;13.722;2023-07-20T11:57:06;99596.78;;;17.66;85.32
76448;BME280;65284;51.040;13.722;2023-07-20T11:59:33;99596.59;;;17.61;87.02
76448;BME280;65284;51.040;13.722;2023-07-20T12:02:03;99594.41;;;17.83;83.94
76448;BME280;65284;51.040;13.722;2023-07-20T12:04:33;99590.06;;;17.82;86.78
76448;BME280;65284;51.040;13.722;2023-07-20T12:07:00;99601.81;;;17.87;84.98
76448;BME280;65284;51.040;13.722;2023-07-20T12:09:26;99596.72;;;17.79;85.04
76448;BME280;65284;51.040;13.722;2023-07-20T12:12:10;99613.06;;;17.78;83.06
76448;BME280;65284;51.040;13.722;2023-07-20T12:14:39;99621.25;;;17.51;87.25
76448;BME280;65284;51.040;13.722;2023-07-20T12:17:08;99605.38;;;17.43;87.19
76448;BME280;65284;51.040;13.722;2023-07-20T12:19:38;99601.91;;;17.36;87.59
76448;BME280;65284;51.040;13.722;2023-07-20T12:22:05;99607.31;;;17.29;89.73
76448;BME280;65284;51.040;13.722;2023-07-20T12:24:32;99609.84;;;17.17;92.12
76448;BME280;65284;51.040;13.722;2023-07-20T12:26:59;99616.94;;;17.05;94.37
76448;BME280;65284;51.040;13.722;2023-07-20T12:29:25;99614.06;;;16.93;95.90
76448;BME280;65284;51.040;13.722;2023-07-20T12:31:52;99618.19;;;16.96;95.59
76448;BME280;65284;51.040;13.722;2023-07-20T12:34:19;99614.91;;;16.94;96.17
76448;BME280;65284;51.040;13.722;2023-07-20T12:36:45;99631.84;;;16.88;97.47
76448;BME280;65284;51.040;13.722;2023-07-20T12:39:11;99657.03;;;16.87;98.36
76448;BME280;65284;51.040;13.722;2023-07-20T12:41:38;99638.06;;;16.81;100.00
76448;BME280;65284;51.040;13.722;2023-07-20T12:44:04;99634.75;;;16.79;100.00
76448;BME280;65284;51.040;13.722;2023-07-20T12:46:31;99642.19;;;16.64;99.74
76448;BME280;65284;51.040;13.722;2023-07-20T12:49:01;99643.06;;;16.45;93.84
76448;BME280;65284;51.040;13.722;2023-07-20T12:51:27;99643.25;;;16.43;94.23
76448;BME280;65284;51.040;13.722;2023-07-20T12:53:54;99651.09;;;16.38;96.11
76448;BME280;65284;51.040;13.722;2023-07-20T12:56:20;99650.47;;;16.43;95.95
76448;BME280;65284;51.040;13.722;2023-07-20T12:58:50;99664.09;;;16.48;94.86
76448;BME280;65284;51.040;13.722;2023-07-20T13:01:16;99660.13;;;16.50;95.76
76448;BME280;65284;51.040;13.722;2023-07-20T13:03:43;99655.41;;;16.46;95.20
76448;BME280;65284;51.040;13.722;2023-07-20T13:06:12;99643.03;;;16.51;94.96
76448;BME280;65284;51.040;13.722;2023-07-20T13:08:42;99639.53;;;16.51;94.64
76448;BME280;65284;51.040;13.722;2023-07-20T13:11:08;99637.25;;;16.61;94.58